createdAt,value
2019-02-16T00:00:11.353Z,13.17
2019-02-16T00:02:42.340Z,12.53
2019-02-16T00:05:14.054Z,13.20
2019-02-16T00:07:44.096Z,10.47
2019-02-16T00:10:16.966Z,9.87
2019-02-16T00:12:50.830Z,12.50
2019-02-16T00:15:21.211Z,10.43
2019-02-16T00:17:50.918Z,11.73
2019-02-16T00:20:30.243Z,10.20
2019-02-16T00:23:00.455Z,12.17
2019-02-16T00:25:32.652Z,10.07
2019-02-16T00:28:08.200Z,8.50
2019-02-16T00:30:38.148Z,9.63
2019-02-16T00:33:08.022Z,14.63
2019-02-16T00:35:38.135Z,10.23
2019-02-16T00:38:09.036Z,10.27
2019-02-16T00:40:40.498Z,11.50
2019-02-16T00:43:10.966Z,8.73
2019-02-16T00:45:40.969Z,13.00
2019-02-16T00:48:10.817Z,6.93
2019-02-16T00:50:40.806Z,7.03
2019-02-16T00:53:11.502Z,9.17
2019-02-16T00:55:41.168Z,5.67
2019-02-16T00:58:11.202Z,6.20
2019-02-16T01:00:41.205Z,6.73
2019-02-16T01:03:20.771Z,8.10
2019-02-16T01:05:50.689Z,6.53
2019-02-16T01:08:22.244Z,6.63
2019-02-16T01:10:52.479Z,6.43
2019-02-16T01:13:28.966Z,6.53
2019-02-16T01:16:00.478Z,5.00
2019-02-16T01:18:31.007Z,4.73
2019-02-16T01:21:00.842Z,6.23
2019-02-16T01:23:30.589Z,4.60
2019-02-16T01:26:03.752Z,5.63
2019-02-16T01:28:33.727Z,4.37
2019-02-16T01:31:03.476Z,8.17
2019-02-16T01:33:33.857Z,5.10
2019-02-16T01:36:04.025Z,6.03
2019-02-16T01:38:33.899Z,5.67
2019-02-16T01:41:05.163Z,6.37
2019-02-16T01:43:36.489Z,5.70
2019-02-16T01:46:08.970Z,4.70
2019-02-16T01:48:42.943Z,5.33
2019-02-16T01:51:21.342Z,4.77
2019-02-16T01:53:51.214Z,6.67
2019-02-16T01:56:24.919Z,5.77
2019-02-16T01:58:55.053Z,5.73
2019-02-16T02:01:24.832Z,5.17
2019-02-16T02:03:54.985Z,5.93
2019-02-16T02:06:25.271Z,6.10
2019-02-16T02:08:55.163Z,4.87
2019-02-16T02:11:25.245Z,6.80
2019-02-16T02:13:55.192Z,5.97
2019-02-16T02:16:24.770Z,7.13
2019-02-16T02:19:38.997Z,6.43
2019-02-16T02:22:08.928Z,7.50
2019-02-16T02:24:38.979Z,5.87
2019-02-16T02:27:11.632Z,5.90
2019-02-16T02:29:42.064Z,8.00
2019-02-16T02:32:11.889Z,7.50
2019-02-16T02:34:41.770Z,7.00
2019-02-16T02:37:12.198Z,6.37
2019-02-16T02:39:42.133Z,8.63
2019-02-16T02:42:12.088Z,6.90
2019-02-16T02:44:42.408Z,7.93
2019-02-16T02:47:12.177Z,6.27
2019-02-16T02:49:42.175Z,8.00
2019-02-16T02:52:12.133Z,6.10
2019-02-16T02:54:42.210Z,5.67
2019-02-16T02:57:12.377Z,7.00
2019-02-16T02:59:43.116Z,6.67
2019-02-16T03:02:13.424Z,5.83
2019-02-16T03:04:43.407Z,5.90
2019-02-16T03:07:13.822Z,5.60
2019-02-16T03:09:44.179Z,6.17
2019-02-16T03:12:14.027Z,7.40
2019-02-16T03:14:44.163Z,8.57
2019-02-16T03:17:44.388Z,6.90
2019-02-16T03:19:47.413Z,8.20
2019-02-16T03:22:24.418Z,7.53
2019-02-16T03:24:54.275Z,8.03
2019-02-16T03:28:11.468Z,8.60
2019-02-16T03:31:21.023Z,6.57
2019-02-16T03:33:56.622Z,10.33
2019-02-16T03:37:20.824Z,7.00
2019-02-16T03:39:50.716Z,6.77
2019-02-16T03:42:21.250Z,7.03
2019-02-16T03:44:51.132Z,7.53
2019-02-16T03:47:21.263Z,6.83
2019-02-16T03:49:51.621Z,6.60
2019-02-16T03:52:21.962Z,8.10
2019-02-16T03:54:51.859Z,7.20
2019-02-16T03:57:21.980Z,6.30
2019-02-16T03:59:51.947Z,5.87
2019-02-16T04:02:21.748Z,7.23
2019-02-16T04:04:52.068Z,5.57
2019-02-16T04:07:21.999Z,5.93
2019-02-16T04:09:51.850Z,6.70
2019-02-16T04:12:22.759Z,4.87
2019-02-16T04:14:53.491Z,6.43
2019-02-16T04:17:23.354Z,6.07
2019-02-16T04:19:53.180Z,6.57
2019-02-16T04:22:24.869Z,5.07
2019-02-16T04:24:56.969Z,6.97
2019-02-16T04:27:26.584Z,6.13
2019-02-16T04:29:56.505Z,5.50
2019-02-16T04:32:26.588Z,5.27
2019-02-16T04:34:57.513Z,6.40
2019-02-16T04:37:27.471Z,7.00
2019-02-16T04:39:57.263Z,11.13
2019-02-16T04:42:27.619Z,11.60
2019-02-16T04:44:57.439Z,9.83
2019-02-16T04:47:27.321Z,8.23
2019-02-16T04:50:24.486Z,6.90
2019-02-16T04:52:54.358Z,8.47
2019-02-16T04:55:24.267Z,39.20
2019-02-16T04:57:54.127Z,39.70
2019-02-16T05:00:24.479Z,44.83
2019-02-16T05:02:54.262Z,48.60
2019-02-16T05:05:24.617Z,19.73
2019-02-16T05:07:54.954Z,13.60
2019-02-16T05:10:24.873Z,11.20
2019-02-16T05:12:56.343Z,8.90
2019-02-16T05:16:29.464Z,9.87
2019-02-16T05:18:59.357Z,8.40
2019-02-16T05:21:29.288Z,7.63
2019-02-16T05:23:59.204Z,9.37
2019-02-16T05:26:29.514Z,8.37
2019-02-16T05:28:59.271Z,8.07
2019-02-16T05:31:29.118Z,8.90
2019-02-16T05:33:59.282Z,8.77
2019-02-16T05:36:29.115Z,7.80
2019-02-16T05:38:59.020Z,9.03
2019-02-16T05:41:29.420Z,7.13
2019-02-16T05:43:59.229Z,6.97
2019-02-16T05:46:29.332Z,6.60
2019-02-16T05:49:02.404Z,7.73
2019-02-16T05:51:32.899Z,7.17
2019-02-16T05:54:03.117Z,9.50
2019-02-16T05:56:32.957Z,12.53
2019-02-16T05:59:02.991Z,19.93
2019-02-16T06:01:32.826Z,19.30
2019-02-16T06:04:08.831Z,18.00
2019-02-16T06:06:38.675Z,23.27
2019-02-16T06:09:08.472Z,20.80
2019-02-16T06:11:38.469Z,28.13
2019-02-16T06:14:09.287Z,47.17
2019-02-16T06:16:39.124Z,45.93
2019-02-16T06:19:09.809Z,40.60
2019-02-16T06:21:39.724Z,41.60
2019-02-16T06:24:14.307Z,38.43
2019-02-16T06:26:44.333Z,30.63
2019-02-16T06:29:14.172Z,25.80
2019-02-16T06:31:44.437Z,19.73
2019-02-16T06:34:14.218Z,21.93
2019-02-16T06:36:44.308Z,24.90
2019-02-16T06:39:14.354Z,27.30
2019-02-16T06:41:44.709Z,17.73
2019-02-16T06:44:15.067Z,16.27
2019-02-16T06:46:44.979Z,15.47
2019-02-16T06:49:14.972Z,11.90
2019-02-16T06:51:44.939Z,12.63
2019-02-16T06:54:15.628Z,11.20
2019-02-16T06:57:03.214Z,8.97
2019-02-16T06:59:33.933Z,9.07
2019-02-16T07:02:13.327Z,8.83
2019-02-16T07:04:43.389Z,16.00
2019-02-16T07:07:17.834Z,16.30
2019-02-16T07:09:53.864Z,30.37
2019-02-16T07:12:30.246Z,59.83
2019-02-16T07:15:06.968Z,41.33
2019-02-16T07:17:56.347Z,19.30
2019-02-16T07:20:29.458Z,13.33
2019-02-16T07:23:22.147Z,10.10
2019-02-16T07:25:50.794Z,12.73
2019-02-16T07:28:23.325Z,9.37
2019-02-16T07:30:53.590Z,9.23
2019-02-16T07:33:23.579Z,8.23
2019-02-16T07:35:53.425Z,8.63
2019-02-16T07:38:23.503Z,7.00
2019-02-16T07:40:54.043Z,8.00
2019-02-16T07:43:43.157Z,11.57
2019-02-16T07:46:27.264Z,8.00
2019-02-16T07:49:19.170Z,9.53
2019-02-16T07:52:14.158Z,8.67
2019-02-16T07:55:08.946Z,9.10
2019-02-16T07:58:07.417Z,8.30
2019-02-16T08:01:00.225Z,13.47
2019-02-16T08:03:40.559Z,9.77
2019-02-16T08:06:28.144Z,11.67
2019-02-16T08:09:38.423Z,13.03
2019-02-16T08:12:13.558Z,15.47
2019-02-16T08:18:07.483Z,13.20
2019-02-16T08:20:59.242Z,14.37
2019-02-16T08:23:48.118Z,14.43
2019-02-16T08:26:29.686Z,14.60
2019-02-16T08:29:33.772Z,12.77
2019-02-16T08:32:41.956Z,11.67
2019-02-16T08:35:40.148Z,17.13
2019-02-16T08:38:37.014Z,15.43
2019-02-16T08:41:45.848Z,16.03
2019-02-16T08:44:34.093Z,13.13
2019-02-16T08:47:26.406Z,13.37
2019-02-16T08:50:19.208Z,12.87
2019-02-16T08:52:57.932Z,13.40
2019-02-16T08:56:05.857Z,13.07
2019-02-16T08:59:18.007Z,18.10
2019-02-16T09:02:03.359Z,20.03
2019-02-16T09:05:02.843Z,15.47
2019-02-16T09:07:43.294Z,15.23
2019-02-16T09:10:35.457Z,13.13
2019-02-16T09:13:25.562Z,10.33
2019-02-16T09:16:13.008Z,10.73
2019-02-16T09:19:01.173Z,10.57
2019-02-16T09:21:42.067Z,8.93
2019-02-16T09:24:41.382Z,9.00
2019-02-16T09:27:33.427Z,10.20
2019-02-16T09:30:38.478Z,8.63
2019-02-16T09:33:49.015Z,7.43
2019-02-16T09:36:57.164Z,8.57
2019-02-16T09:39:46.060Z,8.77
2019-02-16T09:42:27.270Z,10.47
2019-02-16T09:45:32.235Z,9.07
2019-02-16T09:48:29.917Z,13.37
2019-02-16T09:51:08.822Z,10.87
2019-02-16T09:54:08.870Z,11.60
2019-02-16T09:57:10.072Z,9.73
2019-02-16T10:00:05.403Z,14.00
2019-02-16T10:03:06.493Z,10.50
2019-02-16T10:05:58.462Z,10.13
2019-02-16T10:08:47.877Z,10.03
2019-02-16T10:11:34.708Z,10.60
2019-02-16T10:14:42.049Z,14.27
2019-02-16T10:17:37.494Z,13.23
2019-02-16T10:20:40.460Z,13.33
2019-02-16T10:23:38.956Z,13.57
2019-02-16T10:26:21.447Z,14.40
2019-02-16T10:29:13.694Z,15.30
2019-02-16T10:31:59.922Z,16.93
2019-02-16T10:34:40.030Z,17.10
2019-02-16T10:37:31.278Z,15.93
2019-02-16T10:40:33.675Z,15.80
2019-02-16T10:43:21.690Z,18.13
2019-02-16T10:46:24.585Z,16.60
2019-02-16T10:49:10.086Z,14.33
2019-02-16T10:52:08.097Z,16.20
2019-02-16T10:54:51.831Z,16.33
2019-02-16T10:57:51.650Z,17.10
2019-02-16T11:00:47.067Z,17.90
2019-02-16T11:03:48.237Z,17.27
2019-02-16T11:06:45.500Z,18.17
2019-02-16T11:09:38.757Z,16.67
2019-02-16T11:12:42.762Z,18.87
2019-02-16T11:15:44.165Z,19.33
2019-02-16T11:18:33.168Z,20.80
2019-02-16T11:21:28.959Z,17.17
2019-02-16T11:24:19.634Z,18.47
2019-02-16T11:27:07.848Z,20.27
2019-02-16T11:29:49.936Z,18.93
2019-02-16T11:36:03.932Z,21.37
2019-02-16T11:38:47.284Z,21.47
2019-02-16T11:41:39.169Z,23.73
2019-02-16T11:44:40.544Z,20.90
2019-02-16T11:47:40.355Z,20.67
2019-02-16T11:50:43.002Z,24.33
2019-02-16T11:53:27.944Z,21.40
2019-02-16T11:56:17.770Z,19.90
2019-02-16T11:59:18.412Z,21.97
2019-02-16T12:02:19.797Z,21.90
2019-02-16T12:04:58.267Z,20.43
2019-02-16T12:08:02.351Z,24.23
2019-02-16T12:10:54.011Z,18.70
2019-02-16T12:13:43.827Z,24.03
2019-02-16T12:16:52.348Z,20.10
2019-02-16T12:19:40.890Z,21.90
2019-02-16T12:22:39.077Z,23.13
2019-02-16T12:25:36.328Z,19.63
2019-02-16T12:28:21.569Z,18.83
2019-02-16T12:31:20.836Z,19.00
2019-02-16T12:34:13.283Z,20.53
2019-02-16T12:37:18.625Z,23.97
2019-02-16T12:40:14.337Z,17.60
2019-02-16T12:43:03.270Z,19.13
2019-02-16T12:45:57.818Z,22.00
2019-02-16T12:51:55.997Z,14.70
2019-02-16T12:54:50.407Z,17.57
2019-02-16T12:57:48.461Z,19.87
2019-02-16T13:00:43.468Z,20.00
2019-02-16T13:03:34.993Z,15.33
2019-02-16T13:06:39.243Z,17.97
2019-02-16T13:09:29.068Z,18.40
2019-02-16T13:12:29.163Z,15.40
2019-02-16T13:15:17.114Z,15.13
2019-02-16T13:18:04.840Z,20.53
2019-02-16T13:20:52.272Z,19.23
2019-02-16T13:23:49.084Z,21.00
2019-02-16T13:26:41.783Z,21.77
2019-02-16T13:29:31.040Z,17.53
2019-02-16T13:32:29.902Z,16.80
2019-02-16T13:35:35.288Z,18.83
2019-02-16T13:42:12.431Z,17.03
2019-02-16T13:44:57.022Z,15.83
2019-02-16T13:47:38.873Z,16.63
2019-02-16T13:50:31.948Z,16.60
2019-02-16T13:53:42.682Z,17.17
2019-02-16T13:56:23.881Z,20.63
2019-02-16T13:59:58.349Z,16.00
2019-02-16T14:03:35.368Z,15.13
2019-02-16T14:09:27.624Z,21.27
2019-02-16T14:12:21.695Z,16.20
2019-02-16T14:15:12.452Z,17.97
2019-02-16T14:17:51.694Z,15.70
2019-02-16T14:20:26.184Z,19.27
2019-02-16T14:22:57.311Z,16.67
2019-02-16T14:25:45.720Z,18.87
2019-02-16T14:28:19.626Z,22.90
2019-02-16T14:31:17.447Z,17.70
2019-02-16T14:33:47.336Z,21.03
2019-02-16T14:36:19.085Z,23.23
2019-02-16T14:39:14.433Z,19.73
2019-02-16T14:41:52.846Z,25.60
2019-02-16T14:44:22.772Z,24.57
2019-02-16T14:46:54.931Z,18.90
2019-02-16T14:49:25.068Z,21.17
2019-02-16T14:52:03.258Z,23.50
2019-02-16T14:54:33.006Z,21.03
2019-02-16T14:57:21.864Z,27.07
2019-02-16T14:59:53.325Z,16.97
2019-02-16T15:02:23.497Z,22.33
2019-02-16T15:04:53.393Z,15.97
2019-02-16T15:07:31.960Z,19.87
2019-02-16T15:10:02.429Z,19.33
2019-02-16T15:12:32.560Z,24.67
2019-02-16T15:15:02.560Z,20.63
2019-02-16T15:17:52.058Z,27.40
2019-02-16T15:20:24.934Z,25.40
2019-02-16T15:22:55.600Z,20.10
2019-02-16T15:25:25.830Z,21.23
2019-02-16T15:28:01.607Z,19.47
2019-02-16T15:30:35.485Z,19.67
2019-02-16T15:33:08.919Z,22.00
2019-02-16T15:38:33.498Z,20.90
2019-02-16T15:41:42.082Z,20.80
2019-02-16T15:44:12.554Z,16.33
2019-02-16T15:46:55.675Z,22.43
2019-02-16T15:49:26.988Z,21.27
2019-02-16T15:51:59.195Z,19.07
2019-02-16T15:54:29.368Z,20.60
2019-02-16T15:57:09.052Z,18.47
2019-02-16T15:59:39.706Z,21.20
2019-02-16T16:02:12.392Z,31.33
2019-02-16T16:04:45.626Z,23.70
2019-02-16T16:07:21.409Z,25.63
2019-02-16T16:10:29.681Z,23.77
2019-02-16T16:13:19.081Z,25.33
2019-02-16T16:15:58.548Z,33.93
2019-02-16T16:18:45.739Z,34.73
2019-02-16T16:21:31.532Z,32.70
2019-02-16T16:24:19.243Z,29.73
2019-02-16T16:27:16.417Z,32.13
2019-02-16T16:30:06.220Z,29.67
2019-02-16T16:33:04.933Z,28.70
2019-02-16T16:36:02.653Z,22.70
2019-02-16T16:39:08.691Z,27.67
2019-02-16T16:42:10.228Z,27.40
2019-02-16T16:45:08.067Z,25.43
2019-02-16T16:48:00.178Z,26.93
2019-02-16T16:53:57.489Z,25.60
2019-02-16T16:56:45.491Z,29.43
2019-02-16T16:59:39.931Z,31.17
2019-02-16T17:02:45.276Z,49.43
2019-02-16T17:05:38.598Z,255.43
2019-02-16T17:08:46.358Z,292.03
2019-02-16T17:11:40.525Z,178.80
2019-02-16T17:14:51.866Z,143.67
2019-02-16T17:20:40.895Z,119.73
2019-02-16T17:23:44.256Z,102.67
2019-02-16T17:26:37.532Z,111.20
2019-02-16T17:30:01.923Z,142.83
2019-02-16T17:33:01.285Z,183.23
2019-02-16T17:39:01.269Z,112.93
2019-02-16T17:41:51.576Z,105.07
2019-02-16T17:44:39.525Z,77.37
2019-02-16T17:47:27.782Z,69.10
2019-02-16T17:50:12.472Z,66.23
2019-02-16T17:53:05.178Z,54.53
2019-02-16T17:55:56.870Z,56.13
2019-02-16T17:58:37.519Z,50.60
2019-02-16T18:04:42.295Z,46.53
2019-02-16T18:07:39.191Z,47.57
2019-02-16T18:10:40.261Z,37.17
2019-02-16T18:13:20.976Z,33.23
2019-02-16T18:16:04.412Z,36.73
2019-02-16T18:18:53.308Z,36.27
2019-02-16T18:21:40.765Z,34.40
2019-02-16T18:24:43.490Z,31.13
2019-02-16T18:27:43.289Z,28.50
2019-02-16T18:30:59.690Z,30.07
2019-02-16T18:33:48.073Z,34.10
2019-02-16T18:37:03.476Z,25.83
2019-02-16T18:40:11.471Z,31.83
2019-02-16T18:43:09.169Z,29.97
2019-02-16T18:46:08.336Z,27.83
2019-02-16T18:49:04.195Z,23.33
2019-02-16T18:51:42.853Z,30.73
2019-02-16T18:54:51.006Z,29.37
2019-02-16T18:57:45.507Z,32.30
2019-02-16T19:00:32.856Z,30.77
2019-02-16T19:03:40.726Z,37.53
2019-02-16T19:06:37.273Z,37.67
2019-02-16T19:09:25.269Z,35.20
2019-02-16T19:12:08.888Z,29.40
2019-02-16T19:15:04.699Z,27.17
2019-02-16T19:17:47.095Z,26.80
2019-02-16T19:20:52.351Z,22.33
2019-02-16T19:23:47.056Z,22.73
2019-02-16T19:26:51.571Z,21.57
2019-02-16T19:29:38.770Z,22.00
2019-02-16T19:32:35.809Z,20.20
2019-02-16T19:35:15.273Z,20.03
2019-02-16T19:38:09.806Z,21.13
2019-02-16T19:40:48.108Z,16.83
2019-02-16T19:43:33.013Z,18.77
2019-02-16T19:46:23.747Z,16.83
2019-02-16T19:49:11.957Z,15.93
2019-02-16T19:52:04.420Z,16.07
2019-02-16T19:58:55.704Z,13.07
2019-02-16T20:01:44.529Z,13.83
2019-02-16T20:04:53.899Z,15.77
2019-02-16T20:07:48.255Z,15.70
2019-02-16T20:10:37.901Z,13.90
2019-02-16T20:13:46.344Z,19.30
2019-02-16T20:17:00.509Z,28.10
2019-02-16T20:19:52.277Z,39.73
2019-02-16T20:22:49.507Z,40.20
2019-02-16T20:25:50.561Z,36.03
2019-02-16T20:31:33.315Z,37.40
2019-02-16T20:34:22.780Z,28.90
2019-02-16T20:37:34.852Z,25.80
2019-02-16T20:40:22.894Z,25.47
2019-02-16T20:43:30.209Z,18.83
2019-02-16T20:46:27.917Z,19.20
2019-02-16T20:49:45.726Z,14.33
2019-02-16T20:52:36.214Z,16.97
2019-02-16T20:55:23.585Z,14.70
2019-02-16T20:58:15.483Z,10.73
2019-02-16T21:01:13.404Z,12.37
2019-02-16T21:04:13.969Z,11.50
2019-02-16T21:07:13.890Z,14.47
2019-02-16T21:10:01.415Z,17.67
2019-02-16T21:12:57.547Z,13.67
2019-02-16T21:15:50.130Z,16.40
2019-02-16T21:19:05.067Z,19.63
2019-02-16T21:21:55.215Z,18.40
2019-02-16T21:25:04.382Z,20.23
2019-02-16T21:27:57.701Z,23.23
2019-02-16T21:30:40.631Z,23.00
2019-02-16T21:33:39.510Z,24.17
2019-02-16T21:36:36.811Z,21.00
2019-02-16T21:39:39.720Z,18.50
2019-02-16T21:42:34.704Z,24.07
2019-02-16T21:45:15.710Z,22.83
2019-02-16T21:48:20.742Z,21.23
2019-02-16T21:51:17.386Z,25.47
2019-02-16T21:54:07.561Z,24.93
2019-02-16T21:57:18.819Z,19.47
2019-02-16T22:00:20.735Z,19.83
2019-02-16T22:03:17.190Z,20.90
2019-02-16T22:09:18.214Z,28.30
2019-02-16T22:12:10.875Z,24.67
2019-02-16T22:14:40.381Z,23.80
2019-02-16T22:17:25.705Z,23.97
2019-02-16T22:20:05.373Z,24.67
2019-02-16T22:22:36.102Z,23.33
2019-02-16T22:25:10.951Z,25.73
2019-02-16T22:27:41.990Z,23.90
2019-02-16T22:30:18.532Z,23.50
2019-02-16T22:32:57.692Z,26.13
2019-02-16T22:35:27.497Z,24.70
2019-02-16T22:38:01.451Z,26.30
2019-02-16T22:40:47.770Z,23.70
2019-02-16T22:43:17.526Z,23.03
2019-02-16T22:46:09.755Z,27.93
2019-02-16T22:48:31.034Z,25.30
2019-02-16T22:51:03.900Z,25.07
2019-02-16T22:53:34.516Z,21.07
2019-02-16T22:56:04.275Z,28.33
2019-02-16T22:58:34.136Z,25.80
2019-02-16T23:01:11.795Z,31.90
2019-02-16T23:03:43.161Z,37.90
2019-02-16T23:06:12.970Z,43.27
2019-02-16T23:08:50.933Z,45.70
2019-02-16T23:11:23.364Z,41.47
2019-02-16T23:13:53.294Z,43.27
2019-02-16T23:16:26.765Z,41.37
2019-02-16T23:18:56.621Z,42.57
2019-02-16T23:21:34.393Z,39.03
2019-02-16T23:24:04.751Z,36.60
2019-02-16T23:26:38.029Z,34.03
2019-02-16T23:29:07.733Z,35.40
2019-02-16T23:31:37.710Z,35.97
2019-02-16T23:34:13.534Z,31.47
2019-02-16T23:36:43.274Z,34.23
2019-02-16T23:39:14.110Z,30.27
2019-02-16T23:41:48.043Z,30.90
2019-02-16T23:44:35.286Z,31.43
2019-02-16T23:47:05.348Z,30.33
2019-02-16T23:49:39.076Z,35.13
2019-02-16T23:52:11.774Z,35.53
2019-02-16T23:55:32.503Z,37.33
2019-02-16T23:57:20.181Z,40.63
2019-02-16T23:59:52.372Z,36.50
